createdAt,value
2018-06-10T17:03:58.946Z,99516.30
2018-06-10T17:06:25.878Z,99508.84
2018-06-10T17:08:52.811Z,99512.61
2018-06-10T17:11:19.768Z,99509.12
2018-06-10T17:13:46.715Z,99509.48
2018-06-10T17:16:13.755Z,99515.16
2018-06-10T17:18:40.669Z,99509.51
2018-06-10T17:21:07.618Z,99508.77
2018-06-10T17:23:34.510Z,99504.63
2018-06-10T17:26:02.035Z,99502.12
2018-06-10T17:28:29.033Z,99495.62
2018-06-10T17:30:55.951Z,99507.93
2018-06-10T17:33:22.898Z,99503.64
2018-06-10T17:35:50.053Z,99502.61
2018-06-10T17:38:17.049Z,99498.91
2018-06-10T17:40:44.136Z,99491.59
2018-06-10T17:43:11.183Z,99497.61
2018-06-10T17:45:38.097Z,99489.41
2018-06-10T17:48:05.054Z,99483.63
2018-06-10T17:50:32.036Z,99482.09
2018-06-10T17:52:58.997Z,99479.27
2018-06-10T17:55:25.917Z,99479.82
2018-06-10T17:57:53.643Z,99490.72
2018-06-10T18:00:20.554Z,99489.50
2018-06-10T18:02:47.538Z,99486.28
2018-06-10T18:05:14.478Z,99483.11
2018-06-10T18:07:41.390Z,99491.77
2018-06-10T18:10:08.390Z,99495.19
2018-06-10T18:12:35.378Z,99497.61
2018-06-10T18:15:02.353Z,99508.34
2018-06-10T18:17:29.233Z,99519.00
2018-06-10T18:19:56.207Z,99530.02
2018-06-10T18:22:23.167Z,99535.34
2018-06-10T18:24:50.130Z,99541.70
2018-06-10T18:27:17.082Z,99545.67
2018-06-10T18:29:44.021Z,99544.23
2018-06-10T18:32:11.002Z,99540.18
2018-06-10T18:34:37.958Z,99534.39
2018-06-10T18:37:05.031Z,99534.24
2018-06-10T18:39:31.941Z,99541.94
2018-06-10T18:41:58.922Z,99541.20
2018-06-10T18:44:25.870Z,99537.59
2018-06-10T18:46:52.853Z,99550.30
2018-06-10T18:49:27.982Z,99553.22
2018-06-10T18:51:54.982Z,99566.98
2018-06-10T18:54:23.634Z,99558.59
2018-06-10T18:57:05.150Z,99564.53
2018-06-10T18:59:33.613Z,99561.19
2018-06-10T19:02:00.607Z,99576.36
2018-06-10T19:04:27.550Z,99586.93
2018-06-10T19:06:54.514Z,99580.27
2018-06-10T19:09:23.522Z,99570.70
2018-06-10T19:11:52.112Z,99576.52
2018-06-10T19:14:19.080Z,99581.98
2018-06-10T19:16:46.018Z,99579.23
2018-06-10T19:19:13.604Z,99583.78
2018-06-10T19:21:40.630Z,99577.78
2018-06-10T19:24:07.605Z,99581.52
2018-06-10T19:26:34.574Z,99582.72
2018-06-10T19:29:01.535Z,99592.42
2018-06-10T19:31:32.346Z,99592.27
2018-06-10T19:33:59.482Z,99586.02
2018-06-10T19:36:26.438Z,99591.78
2018-06-10T19:38:56.165Z,99597.09
2018-06-10T19:41:23.094Z,99604.56
2018-06-10T19:43:50.014Z,99608.77
2018-06-10T19:46:17.624Z,99620.65
2018-06-10T19:48:45.586Z,99636.03
2018-06-10T19:51:18.698Z,99632.58
2018-06-10T19:53:46.670Z,99629.88
2018-06-10T19:56:13.646Z,99633.31
2018-06-10T19:58:41.570Z,99648.86
2018-06-10T20:01:12.554Z,99666.36
2018-06-10T20:03:42.499Z,99672.80
2018-06-10T20:06:09.442Z,99682.89
2018-06-10T20:08:37.446Z,99685.43
2018-06-10T20:11:10.534Z,99695.48
2018-06-10T20:13:37.478Z,99701.25
2018-06-10T20:16:06.166Z,99692.20
2018-06-10T20:18:33.290Z,99693.25
2018-06-10T20:21:00.242Z,99709.71
2018-06-10T20:23:27.182Z,99726.13
2018-06-10T20:25:54.114Z,99743.88
2018-06-10T20:28:22.108Z,99759.43
2018-06-10T20:30:49.050Z,99760.66
2018-06-10T20:33:16.634Z,99750.11
2018-06-10T20:35:49.656Z,99767.50
2018-06-10T20:38:17.250Z,99757.77
2018-06-10T20:40:44.173Z,99766.13
2018-06-10T20:43:11.146Z,99769.75
2018-06-10T20:45:38.098Z,99758.11
2018-06-10T20:48:05.069Z,99748.46
2018-06-10T20:50:31.990Z,99738.30
2018-06-10T20:53:01.931Z,99715.64
2018-06-10T20:55:28.882Z,99698.39
2018-06-10T20:57:55.794Z,99692.14
2018-06-10T21:00:22.816Z,99710.67
2018-06-10T21:02:49.746Z,99732.68
2018-06-10T21:05:18.446Z,99746.19
2018-06-10T21:07:45.423Z,99746.70
2018-06-10T21:10:12.359Z,99758.05
2018-06-10T21:12:39.330Z,99762.30
2018-06-10T21:15:07.302Z,99762.13
2018-06-10T21:17:40.317Z,99773.86
2018-06-10T21:20:08.171Z,99780.87
2018-06-10T21:22:37.194Z,99781.02
2018-06-10T21:25:11.914Z,99773.73
2018-06-10T21:27:38.876Z,99760.05
2018-06-10T21:30:05.854Z,99753.59
2018-06-10T21:32:32.949Z,99749.20
2018-06-10T21:34:59.841Z,99755.50
2018-06-10T21:37:31.564Z,99754.34
2018-06-10T21:39:59.190Z,99753.12
2018-06-10T21:42:26.669Z,99757.81
2018-06-10T21:44:53.626Z,99763.48
2018-06-10T21:47:20.581Z,99757.19
2018-06-10T21:49:48.266Z,99754.92
2018-06-10T21:52:15.218Z,99755.66
2018-06-10T21:54:50.255Z,99753.23
2018-06-10T21:57:21.716Z,99745.50
2018-06-10T21:59:48.919Z,99740.81
2018-06-10T22:02:18.882Z,99735.16
2018-06-10T22:04:45.846Z,99734.17
2018-06-10T22:07:13.746Z,99723.58
2018-06-10T22:09:41.222Z,99724.83
2018-06-10T22:12:08.692Z,99725.13
2018-06-10T22:14:36.234Z,99725.99
2018-06-10T22:17:17.554Z,99722.70
2018-06-10T22:19:45.451Z,99711.84
2018-06-10T22:22:15.910Z,99712.84
2018-06-10T22:24:42.856Z,99714.05
2018-06-10T22:27:09.786Z,99723.55
2018-06-10T22:29:37.262Z,99723.62
2018-06-10T22:32:10.143Z,99720.47
2018-06-10T22:34:41.007Z,99722.62
2018-06-10T22:37:10.923Z,99718.59
2018-06-10T22:39:39.731Z,99718.41
2018-06-10T22:42:06.662Z,99721.41
2018-06-10T22:44:46.546Z,99726.47
2018-06-10T22:47:15.563Z,99717.67
2018-06-10T22:49:42.518Z,99714.30
2018-06-10T22:52:11.526Z,99721.91
2018-06-10T22:54:40.614Z,99724.85
2018-06-10T22:57:17.328Z,99737.47
2018-06-10T22:59:44.298Z,99737.22
2018-06-10T23:02:16.051Z,99736.12
2018-06-10T23:04:42.990Z,99730.58
2018-06-10T23:07:11.001Z,99736.14
2018-06-10T23:09:38.746Z,99745.03
2018-06-10T23:12:06.178Z,99746.12
2018-06-10T23:14:33.090Z,99741.17
2018-06-10T23:17:00.035Z,99745.03
2018-06-10T23:19:27.010Z,99750.67
2018-06-10T23:21:53.962Z,99752.05
2018-06-10T23:24:21.726Z,99742.57
2018-06-10T23:26:48.702Z,99738.62
2018-06-10T23:29:19.218Z,99737.38
2018-06-10T23:31:47.006Z,99727.21
2018-06-10T23:34:17.650Z,99725.14
2018-06-10T23:36:44.618Z,99730.69
2018-06-10T23:39:11.573Z,99733.99
2018-06-10T23:41:38.580Z,99737.52
2018-06-10T23:44:07.527Z,99736.79
2018-06-10T23:46:48.542Z,99736.57
2018-06-10T23:49:15.595Z,99745.77
2018-06-10T23:51:45.379Z,99746.94
2018-06-10T23:54:12.662Z,99742.84
2018-06-10T23:56:40.301Z,99747.97
2018-06-10T23:59:08.326Z,99738.03
